»·PEaware :: N313AA KSFO-KSMF

N313AA :: KSFO-KSMF

FLIGHT INFORMATION

Flight Status: Arrived
Operator: Privately registered:
United States
More flights under this callsign
Pilot: Brad G. (19121)
Aircraft: Unknown
(SF50)
More flights by this aircraft type
Origin: KSFO San Francisco Intl
United States
Destination: KSMF Sacramento Intl
United States
More flights between these airports :: More routes between these airports
Route: +TRUKN2 TRUKN CCR CCR2
File this flight plan on PilotEdge
Remarks:
Altitude:
(Current/Filed)
7,000ft
Speed:
(Current/Filed)
200kts
Departed: 08-May-18 08:27 PM
Arrived: 08-May-18 08:58 PM
Distance/Time
Traveled:
74nm/0:31
Distance/Time
To Go:
Arrived

Flight Plot

Page will automatically refresh every two minutes.

Flight plan parsing failed; only flown route is shown


Map Options




Map Legend


Flown Route
Filed Route
Departure Airport
Arrival Airport
Navaid (VOR, NDB)
Fix

Horizontal Profiles

Position Reports

Time Latitude Longitude Heading Altitude Ground
Speed
08-May-18 19:47 37.627659 -122.383099 299 12ft 0kts
08-May-18 19:48 37.627659 -122.383099 299 12ft 0kts
08-May-18 19:49 37.627659 -122.383099 299 12ft 0kts
08-May-18 19:50 37.627659 -122.383099 299 12ft 0kts
08-May-18 19:51 37.627659 -122.383099 299 12ft 0kts
08-May-18 19:52 37.627659 -122.383099 299 12ft 0kts
08-May-18 19:53 37.627659 -122.383099 299 12ft 0kts
08-May-18 19:54 37.627659 -122.383099 299 12ft 0kts
08-May-18 19:55 37.627659 -122.383099 299 12ft 0kts
08-May-18 19:56 37.627659 -122.383099 299 12ft 0kts
08-May-18 19:57 37.627659 -122.383099 299 12ft 0kts
08-May-18 19:58 37.627659 -122.383099 299 12ft 0kts
08-May-18 19:59 37.627659 -122.383099 299 12ft 0kts
08-May-18 20:00 37.627659 -122.383099 299 12ft 0kts
08-May-18 20:01 37.627659 -122.383099 299 12ft 0kts
08-May-18 20:02 37.627659 -122.383099 299 12ft 0kts
08-May-18 20:03 37.627659 -122.383099 299 12ft 0kts
08-May-18 20:04 37.627659 -122.383099 299 12ft 0kts
08-May-18 20:05 37.627659 -122.383099 299 12ft 0kts
08-May-18 20:06 37.627659 -122.383099 299 12ft 0kts
08-May-18 20:07 37.627659 -122.383099 299 12ft 0kts
08-May-18 20:08 37.627659 -122.383099 299 12ft 0kts
08-May-18 20:09 37.627659 -122.383099 299 12ft 0kts
08-May-18 20:10 37.627659 -122.383099 299 12ft 0kts
08-May-18 20:10 37.627659 -122.383099 299 12ft 0kts
08-May-18 20:11 37.627659 -122.383099 299 12ft 0kts
08-May-18 20:12 37.627659 -122.383099 299 12ft 0kts
08-May-18 20:14 37.627659 -122.383099 299 12ft 0kts
08-May-18 20:15 37.627659 -122.383099 299 12ft 0kts
08-May-18 20:16 37.627659 -122.383099 299 12ft 0kts
08-May-18 20:17 37.627659 -122.383099 299 12ft 0kts
08-May-18 20:18 37.627610 -122.383351 217 12ft 3kts
08-May-18 20:19 37.626617 -122.383135 144 14ft 8kts
08-May-18 20:20 37.625318 -122.381540 118 19ft 9kts
08-May-18 20:21 37.623611 -122.377466 117 19ft 15kts
08-May-18 20:22 37.622376 -122.375488 225 17ft 0kts
08-May-18 20:23 37.622376 -122.375488 225 17ft 0kts
08-May-18 20:24 37.622376 -122.375488 225 17ft 0kts
08-May-18 20:25 37.622376 -122.375488 225 17ft 0kts
08-May-18 20:26 37.622123 -122.375842 223 18ft 11kts
08-May-18 20:27 37.628848 -122.393491 296 726ft 122kts
08-May-18 20:28 37.655974 -122.383891 64 2015ft 146kts
08-May-18 20:29 37.670808 -122.340969 60 3328ft 122kts
08-May-18 20:30 37.683063 -122.308462 61 4753ft 107kts
08-May-18 20:31 37.695603 -122.274594 63 6776ft 94kts
08-May-18 20:32 37.713628 -122.225829 60 7073ft 249kts
08-May-18 20:33 37.770043 -122.187770 19 6995ft 238kts
08-May-18 20:34 37.830607 -122.156279 19 6981ft 234kts
08-May-18 20:35 37.889890 -122.125606 18 6964ft 233kts
08-May-18 20:36 37.949885 -122.094523 17 6955ft 232kts
08-May-18 20:37 38.009800 -122.063461 18 6954ft 234kts
08-May-18 20:38 38.066975 -122.023711 32 6963ft 239kts
08-May-18 20:39 38.120453 -121.973086 33 6942ft 241kts
08-May-18 20:40 38.174202 -121.921751 33 6919ft 243kts
08-May-18 20:41 38.228494 -121.869721 34 6897ft 244kts
08-May-18 20:42 38.282546 -121.817825 35 6903ft 241kts
08-May-18 20:43 38.335389 -121.766373 37 6911ft 238kts
08-May-18 20:44 38.389727 -121.712562 37 5976ft 246kts
08-May-18 20:45 38.440269 -121.662524 38 4851ft 222kts
08-May-18 20:46 38.492503 -121.640698 338 3916ft 202kts
08-May-18 20:47 38.541668 -121.657710 342 3901ft 168kts
08-May-18 20:48 38.584338 -121.672071 342 3902ft 153kts
08-May-18 20:49 38.638471 -121.683786 351 3915ft 232kts
08-May-18 20:50 38.703224 -121.685196 1 3942ft 234kts
08-May-18 20:51 38.767566 -121.686387 359 3934ft 234kts
08-May-18 20:52 38.830453 -121.682123 27 3450ft 214kts
08-May-18 20:53 38.820510 -121.636629 184 2664ft 175kts
08-May-18 20:54 38.782345 -121.609573 131 2161ft 163kts
08-May-18 20:55 38.756434 -121.578260 176 1525ft 109kts
08-May-18 20:56 38.727026 -121.579869 179 409ft 97kts
08-May-18 20:57 38.702109 -121.580081 179 24ft 70kts
08-May-18 20:58 38.692112 -121.580838 201 21ft 13kts
08-May-18 20:59 38.690244 -121.582188 207 21ft 0kts
08-May-18 21:00 38.690189 -121.582223 204 21ft 2kts
08-May-18 21:01 38.693720 -121.582903 359 21ft 18kts
08-May-18 21:02 38.696871 -121.584422 273 24ft 13kts
08-May-18 21:03 38.696986 -121.590317 269 24ft 20kts
08-May-18 21:04 38.697032 -121.597568 267 24ft 19kts
08-May-18 21:05 38.691557 -121.598713 179 23ft 35kts
08-May-18 21:06 38.681428 -121.598303 151 21ft 16kts

Navigation Log

Ident Type
Flight plan parsing failed, navigation log unavailable